SUR4606 SBPA-SBGL
Flight info
| Callsign | SUR4606 |
|---|---|
| Flight time | 1h 28m |
| Altitude | 39000 |
| Route | UBNUT UN857 AKNUB |
| Aircraft | B737/M-SDE2E3FGHIRWXY/LB1 |
Departure
| Time | 2026-05-06 12:06 |
|---|---|
| Airport | Porto Alegre-Salgado Filho International Airport (SBPA) |
Arrival
| Time | 2026-05-06 13:34 |
|---|---|
| Airport | Rio Galeão – Tom Jobim International Airport (SBGL) |
| Time | Latitude | Longitude | Altitude | Speed | Heading |
|---|---|---|---|---|---|
| 2026-05-06 11:41 | -29.99104 | -51.17401 | 20 ft | 0 kts | 0° |
| 2026-05-06 11:49 | -29.99105 | -51.17401 | 20 ft | 0 kts | 0° |
| 2026-05-06 11:57 | -29.99106 | -51.17401 | 20 ft | 1 kts | 0° |
| 2026-05-06 11:57 | -29.99117 | -51.17401 | 20 ft | 0 kts | 0° |
| 2026-05-06 11:57 | -29.99130 | -51.17400 | 20 ft | 2 kts | 347° |
| 2026-05-06 11:58 | -29.99145 | -51.17395 | 19 ft | 2 kts | 334° |
| 2026-05-06 11:58 | -29.99157 | -51.17386 | 19 ft | 2 kts | 319° |
| 2026-05-06 11:58 | -29.99167 | -51.17373 | 19 ft | 2 kts | 306° |
| 2026-05-06 11:58 | -29.99175 | -51.17358 | 19 ft | 2 kts | 291° |
| 2026-05-06 11:59 | -29.99179 | -51.17342 | 18 ft | 2 kts | 277° |
| 2026-05-06 11:59 | -29.99180 | -51.17332 | 18 ft | 1 kts | 268° |
| 2026-05-06 11:59 | -29.99179 | -51.17327 | 18 ft | 0 kts | 269° |
| 2026-05-06 12:00 | -29.99179 | -51.17330 | 18 ft | 1 kts | 268° |
| 2026-05-06 12:00 | -29.99181 | -51.17344 | 18 ft | 3 kts | 259° |
| 2026-05-06 12:01 | -29.99193 | -51.17372 | 19 ft | 3 kts | 230° |
| 2026-05-06 12:01 | -29.99219 | -51.17388 | 19 ft | 4 kts | 196° |
| 2026-05-06 12:01 | -29.99257 | -51.17375 | 19 ft | 9 kts | 135° |
| 2026-05-06 12:01 | -29.99267 | -51.17274 | 18 ft | 14 kts | 90° |
| 2026-05-06 12:02 | -29.99269 | -51.17161 | 18 ft | 13 kts | 91° |
| 2026-05-06 12:02 | -29.99271 | -51.17054 | 18 ft | 13 kts | 90° |
| 2026-05-06 12:02 | -29.99271 | -51.16952 | 18 ft | 12 kts | 90° |
| 2026-05-06 12:02 | -29.99273 | -51.16846 | 18 ft | 14 kts | 91° |
| 2026-05-06 12:03 | -29.99276 | -51.16730 | 18 ft | 14 kts | 91° |
| 2026-05-06 12:03 | -29.99278 | -51.16618 | 18 ft | 13 kts | 91° |
| 2026-05-06 12:03 | -29.99279 | -51.16512 | 18 ft | 12 kts | 90° |
| 2026-05-06 12:03 | -29.99281 | -51.16417 | 20 ft | 10 kts | 91° |
| 2026-05-06 12:04 | -29.99282 | -51.16340 | 21 ft | 8 kts | 91° |
| 2026-05-06 12:04 | -29.99288 | -51.16278 | 22 ft | 7 kts | 101° |
| 2026-05-06 12:04 | -29.99313 | -51.16232 | 22 ft | 7 kts | 150° |
| 2026-05-06 12:04 | -29.99387 | -51.16222 | 22 ft | 11 kts | 178° |
| 2026-05-06 12:05 | -29.99459 | -51.16242 | 22 ft | 10 kts | 226° |
| 2026-05-06 12:05 | -29.99479 | -51.16318 | 22 ft | 9 kts | 269° |
| 2026-05-06 12:05 | -29.99477 | -51.16480 | 21 ft | 56 kts | 272° |
| 2026-05-06 12:05 | -29.99459 | -51.17328 | 19 ft | 153 kts | 271° |
| 2026-05-06 12:06 | -29.99434 | -51.18706 | 758 ft | 181 kts | 272° |
| 2026-05-06 12:06 | -29.99413 | -51.20139 | 1821 ft | 187 kts | 275° |
| 2026-05-06 12:06 | -29.99361 | -51.21629 | 2491 ft | 191 kts | 277° |
| 2026-05-06 12:06 | -29.99259 | -51.23198 | 3037 ft | 202 kts | 278° |
| 2026-05-06 12:07 | -29.99109 | -51.24833 | 3673 ft | 210 kts | 279° |
| 2026-05-06 12:07 | -29.98756 | -51.26452 | 4401 ft | 211 kts | 298° |
| 2026-05-06 12:07 | -29.97808 | -51.27726 | 5078 ft | 217 kts | 324° |
| 2026-05-06 12:07 | -29.96369 | -51.28366 | 5670 ft | 230 kts | 349° |
| 2026-05-06 12:08 | -29.94702 | -51.28346 | 6108 ft | 251 kts | 2° |
| 2026-05-06 12:08 | -29.92909 | -51.28132 | 6621 ft | 266 kts | 2° |
| 2026-05-06 12:08 | -29.91031 | -51.27967 | 7387 ft | 271 kts | 0° |
| 2026-05-06 12:08 | -29.89154 | -51.27867 | 8150 ft | 275 kts | 359° |
| 2026-05-06 12:09 | -29.87220 | -51.27791 | 8940 ft | 279 kts | 359° |
| 2026-05-06 12:09 | -29.85289 | -51.27718 | 9738 ft | 283 kts | 359° |
| 2026-05-06 12:09 | -29.83305 | -51.27643 | 10438 ft | 291 kts | 359° |
| 2026-05-06 12:09 | -29.81200 | -51.27563 | 10939 ft | 307 kts | 358° |
| 2026-05-06 12:10 | -29.79036 | -51.27478 | 11649 ft | 314 kts | 358° |
| 2026-05-06 12:10 | -29.76843 | -51.27388 | 12448 ft | 318 kts | 358° |
| 2026-05-06 12:10 | -29.74622 | -51.27296 | 13255 ft | 322 kts | 358° |
| 2026-05-06 12:10 | -29.72385 | -51.27045 | 14023 ft | 331 kts | 7° |
| 2026-05-06 12:11 | -29.70190 | -51.26125 | 14717 ft | 346 kts | 26° |
| 2026-05-06 12:11 | -29.68318 | -51.24314 | 15412 ft | 358 kts | 47° |
| 2026-05-06 12:11 | -29.66942 | -51.21907 | 16133 ft | 366 kts | 59° |
| 2026-05-06 12:11 | -29.65746 | -51.19311 | 16845 ft | 373 kts | 61° |
| 2026-05-06 12:12 | -29.64565 | -51.16634 | 17483 ft | 380 kts | 62° |
| 2026-05-06 12:12 | -29.63370 | -51.13907 | 18166 ft | 386 kts | 62° |
| 2026-05-06 12:12 | -29.62162 | -51.11164 | 18894 ft | 390 kts | 62° |
| 2026-05-06 12:12 | -29.60918 | -51.08347 | 19612 ft | 395 kts | 62° |
| 2026-05-06 12:13 | -29.59678 | -51.05553 | 20286 ft | 399 kts | 62° |
| 2026-05-06 12:13 | -29.58414 | -51.02714 | 20939 ft | 404 kts | 62° |
| 2026-05-06 12:13 | -29.57107 | -50.99785 | 21536 ft | 411 kts | 62° |
| 2026-05-06 12:13 | -29.55815 | -50.96898 | 22196 ft | 414 kts | 61° |
| 2026-05-06 12:14 | -29.54487 | -50.93932 | 22756 ft | 421 kts | 62° |
| 2026-05-06 12:14 | -29.53138 | -50.90918 | 23363 ft | 425 kts | 62° |
| 2026-05-06 12:14 | -29.51795 | -50.87919 | 23980 ft | 428 kts | 62° |
| 2026-05-06 12:14 | -29.50421 | -50.84852 | 24525 ft | 433 kts | 62° |
| 2026-05-06 12:15 | -29.49034 | -50.81758 | 25083 ft | 437 kts | 62° |
| 2026-05-06 12:15 | -29.47633 | -50.78634 | 25565 ft | 443 kts | 63° |
| 2026-05-06 12:15 | -29.46228 | -50.75501 | 26121 ft | 446 kts | 62° |
| 2026-05-06 12:15 | -29.44792 | -50.72303 | 26609 ft | 451 kts | 63° |
| 2026-05-06 12:16 | -29.43346 | -50.69085 | 27097 ft | 456 kts | 63° |
| 2026-05-06 12:16 | -29.41905 | -50.65881 | 27637 ft | 458 kts | 63° |
| 2026-05-06 12:16 | -29.40430 | -50.62602 | 28071 ft | 464 kts | 63° |
| 2026-05-06 12:16 | -29.38955 | -50.59291 | 28557 ft | 467 kts | 64° |
| 2026-05-06 12:17 | -29.37464 | -50.55962 | 29001 ft | 471 kts | 64° |
| 2026-05-06 12:17 | -29.35956 | -50.52623 | 29442 ft | 475 kts | 64° |
| 2026-05-06 12:17 | -29.34427 | -50.49249 | 29891 ft | 479 kts | 64° |
| 2026-05-06 12:17 | -29.32906 | -50.45895 | 30324 ft | 482 kts | 64° |
| 2026-05-06 12:18 | -29.31360 | -50.42490 | 30791 ft | 485 kts | 64° |
| 2026-05-06 12:18 | -29.29710 | -50.39091 | 31248 ft | 488 kts | 60° |
| 2026-05-06 12:18 | -29.27813 | -50.35823 | 31645 ft | 492 kts | 53° |
| 2026-05-06 12:18 | -29.25643 | -50.32797 | 32039 ft | 495 kts | 46° |
| 2026-05-06 12:19 | -29.23182 | -50.29997 | 32407 ft | 498 kts | 40° |
| 2026-05-06 12:19 | -29.20507 | -50.27517 | 32895 ft | 496 kts | 33° |
| 2026-05-06 12:19 | -29.17674 | -50.25277 | 33278 ft | 499 kts | 31° |
| 2026-05-06 12:19 | -29.14755 | -50.23120 | 33557 ft | 503 kts | 30° |
| 2026-05-06 12:20 | -29.11766 | -50.20926 | 34052 ft | 504 kts | 30° |
| 2026-05-06 12:20 | -29.08838 | -50.18721 | 34320 ft | 510 kts | 31° |
| 2026-05-06 12:20 | -29.05907 | -50.16435 | 34715 ft | 513 kts | 32° |
| 2026-05-06 12:20 | -29.02969 | -50.14070 | 35072 ft | 517 kts | 33° |
| 2026-05-06 12:21 | -29.00029 | -50.11649 | 35379 ft | 521 kts | 34° |
| 2026-05-06 12:21 | -28.97087 | -50.09187 | 35746 ft | 524 kts | 34° |
| 2026-05-06 12:21 | -28.94129 | -50.06689 | 36222 ft | 525 kts | 34° |
| 2026-05-06 12:21 | -28.91180 | -50.04185 | 36741 ft | 524 kts | 34° |
| 2026-05-06 12:22 | -28.88221 | -50.01670 | 37161 ft | 525 kts | 34° |
| 2026-05-06 12:22 | -28.85236 | -49.99131 | 37499 ft | 527 kts | 34° |
| 2026-05-06 12:22 | -28.82281 | -49.96620 | 37823 ft | 529 kts | 34° |
| 2026-05-06 12:22 | -28.79295 | -49.94087 | 38295 ft | 527 kts | 34° |
| 2026-05-06 12:23 | -28.76354 | -49.91596 | 38614 ft | 529 kts | 34° |
| 2026-05-06 12:23 | -28.73429 | -49.88975 | 38943 ft | 532 kts | 38° |
| 2026-05-06 12:23 | -28.70698 | -49.86068 | 39244 ft | 534 kts | 45° |
| 2026-05-06 12:23 | -28.68268 | -49.82852 | 39260 ft | 538 kts | 53° |
| 2026-05-06 12:24 | -28.64147 | -49.75787 | 39238 ft | 530 kts | 60° |
| 2026-05-06 12:24 | -28.60468 | -49.68449 | 39229 ft | 531 kts | 63° |
| 2026-05-06 12:25 | -28.56923 | -49.61099 | 39218 ft | 529 kts | 63° |
| 2026-05-06 12:25 | -28.53310 | -49.53780 | 39198 ft | 528 kts | 62° |
| 2026-05-06 12:26 | -28.49643 | -49.46477 | 39198 ft | 530 kts | 62° |
| 2026-05-06 12:26 | -28.45967 | -49.39220 | 39192 ft | 528 kts | 62° |
| 2026-05-06 12:27 | -28.42310 | -49.32024 | 39179 ft | 527 kts | 61° |
| 2026-05-06 12:27 | -28.38646 | -49.24822 | 39192 ft | 528 kts | 62° |
| 2026-05-06 12:28 | -28.34961 | -49.17588 | 39167 ft | 527 kts | 62° |
| 2026-05-06 12:28 | -28.31277 | -49.10371 | 39161 ft | 527 kts | 61° |
| 2026-05-06 12:29 | -28.27413 | -49.03313 | 39146 ft | 527 kts | 55° |
| 2026-05-06 12:29 | -28.22780 | -48.96858 | 39141 ft | 527 kts | 47° |
| 2026-05-06 12:30 | -28.17747 | -48.90750 | 39153 ft | 526 kts | 46° |
| 2026-05-06 12:30 | -28.12711 | -48.84705 | 39166 ft | 526 kts | 46° |
| 2026-05-06 12:31 | -28.07729 | -48.78651 | 39178 ft | 528 kts | 47° |
| 2026-05-06 12:31 | -28.02743 | -48.72532 | 39178 ft | 526 kts | 47° |
| 2026-05-06 12:32 | -27.97763 | -48.66401 | 39174 ft | 526 kts | 47° |
| 2026-05-06 12:32 | -27.92793 | -48.60280 | 39160 ft | 527 kts | 47° |
| 2026-05-06 12:33 | -27.87841 | -48.54187 | 39150 ft | 526 kts | 47° |
| 2026-05-06 12:33 | -27.82859 | -48.48070 | 39138 ft | 525 kts | 47° |
| 2026-05-06 12:34 | -27.77911 | -48.42007 | 39138 ft | 526 kts | 47° |
| 2026-05-06 12:34 | -27.72944 | -48.35927 | 39141 ft | 526 kts | 47° |
| 2026-05-06 12:35 | -27.67992 | -48.29876 | 39142 ft | 525 kts | 46° |
| 2026-05-06 12:35 | -27.63040 | -48.23835 | 39134 ft | 524 kts | 47° |
| 2026-05-06 12:36 | -27.58081 | -48.17791 | 39137 ft | 524 kts | 46° |
| 2026-05-06 12:36 | -27.53120 | -48.11754 | 39134 ft | 523 kts | 47° |
| 2026-05-06 12:37 | -27.48158 | -48.05722 | 39134 ft | 524 kts | 47° |
| 2026-05-06 12:37 | -27.43224 | -47.99736 | 39136 ft | 522 kts | 47° |
| 2026-05-06 12:38 | -27.38272 | -47.93737 | 39140 ft | 523 kts | 47° |
| 2026-05-06 12:38 | -27.33284 | -47.87704 | 39141 ft | 523 kts | 47° |
| 2026-05-06 12:39 | -27.28313 | -47.81699 | 39141 ft | 522 kts | 47° |
| 2026-05-06 12:39 | -27.23385 | -47.75752 | 39145 ft | 522 kts | 47° |
| 2026-05-06 12:40 | -27.18402 | -47.69751 | 39146 ft | 520 kts | 47° |
| 2026-05-06 12:40 | -27.13473 | -47.63821 | 39150 ft | 522 kts | 47° |
| 2026-05-06 12:41 | -27.08506 | -47.57853 | 39151 ft | 521 kts | 47° |
| 2026-05-06 12:41 | -27.03515 | -47.51865 | 39151 ft | 522 kts | 47° |
| 2026-05-06 12:42 | -26.98590 | -47.45964 | 39152 ft | 520 kts | 47° |
| 2026-05-06 12:42 | -26.93628 | -47.40028 | 39153 ft | 520 kts | 47° |
| 2026-05-06 12:43 | -26.88657 | -47.34090 | 39151 ft | 521 kts | 47° |
| 2026-05-06 12:43 | -26.83698 | -47.28169 | 39153 ft | 520 kts | 47° |
| 2026-05-06 12:44 | -26.78733 | -47.22252 | 39148 ft | 520 kts | 47° |
| 2026-05-06 12:44 | -26.73794 | -47.16374 | 39151 ft | 519 kts | 47° |
| 2026-05-06 12:45 | -26.68826 | -47.10473 | 39150 ft | 519 kts | 47° |
| 2026-05-06 12:46 | -26.61387 | -47.01651 | 39151 ft | 519 kts | 47° |
| 2026-05-06 12:46 | -26.56405 | -46.95750 | 39148 ft | 520 kts | 47° |
| 2026-05-06 12:47 | -26.51432 | -46.89872 | 39151 ft | 518 kts | 47° |
| 2026-05-06 12:47 | -26.46474 | -46.84015 | 39149 ft | 520 kts | 47° |
| 2026-05-06 12:48 | -26.41471 | -46.78116 | 39153 ft | 518 kts | 47° |
| 2026-05-06 12:48 | -26.36542 | -46.72309 | 39151 ft | 517 kts | 47° |
| 2026-05-06 12:49 | -26.31557 | -46.66447 | 39149 ft | 518 kts | 47° |
| 2026-05-06 12:49 | -26.26586 | -46.60609 | 39151 ft | 517 kts | 47° |
| 2026-05-06 12:50 | -26.21627 | -46.54792 | 39152 ft | 518 kts | 47° |
| 2026-05-06 12:50 | -26.16663 | -46.48980 | 39153 ft | 517 kts | 47° |
| 2026-05-06 12:51 | -26.11700 | -46.43174 | 39153 ft | 516 kts | 47° |
| 2026-05-06 12:51 | -26.06767 | -46.37408 | 39151 ft | 516 kts | 47° |
| 2026-05-06 12:52 | -26.01810 | -46.31625 | 39154 ft | 516 kts | 47° |
| 2026-05-06 12:52 | -25.96818 | -46.25808 | 39153 ft | 515 kts | 47° |
| 2026-05-06 12:53 | -25.91889 | -46.20065 | 39152 ft | 514 kts | 47° |
| 2026-05-06 12:53 | -25.86914 | -46.14280 | 39153 ft | 515 kts | 47° |
| 2026-05-06 12:54 | -25.81937 | -46.08505 | 39152 ft | 514 kts | 47° |
| 2026-05-06 12:54 | -25.76993 | -46.02777 | 39153 ft | 516 kts | 47° |
| 2026-05-06 12:55 | -25.72041 | -45.97047 | 39153 ft | 515 kts | 47° |
| 2026-05-06 12:55 | -25.67082 | -45.91315 | 39156 ft | 513 kts | 47° |
| 2026-05-06 12:56 | -25.62130 | -45.85595 | 39156 ft | 514 kts | 47° |
| 2026-05-06 12:56 | -25.57171 | -45.79873 | 39159 ft | 513 kts | 47° |
| 2026-05-06 12:57 | -25.52172 | -45.74117 | 39157 ft | 515 kts | 47° |
| 2026-05-06 12:57 | -25.47224 | -45.68424 | 39156 ft | 513 kts | 47° |
| 2026-05-06 12:58 | -25.42253 | -45.62709 | 39159 ft | 514 kts | 47° |
| 2026-05-06 12:58 | -25.37255 | -45.56974 | 39159 ft | 514 kts | 47° |
| 2026-05-06 12:59 | -25.32269 | -45.51261 | 39162 ft | 515 kts | 47° |
| 2026-05-06 12:59 | -25.27296 | -45.45572 | 39162 ft | 513 kts | 47° |
| 2026-05-06 13:00 | -25.22330 | -45.39895 | 39166 ft | 513 kts | 47° |
| 2026-05-06 13:00 | -25.17356 | -45.34215 | 39163 ft | 515 kts | 47° |
| 2026-05-06 13:01 | -25.12397 | -45.28558 | 39163 ft | 513 kts | 47° |
| 2026-05-06 13:01 | -25.07407 | -45.22875 | 39166 ft | 511 kts | 47° |
| 2026-05-06 13:02 | -25.02456 | -45.17245 | 39167 ft | 512 kts | 47° |
| 2026-05-06 13:02 | -24.97480 | -45.11596 | 39167 ft | 511 kts | 47° |
| 2026-05-06 13:03 | -24.92486 | -45.05931 | 39168 ft | 511 kts | 47° |
| 2026-05-06 13:03 | -24.87575 | -45.00365 | 39169 ft | 510 kts | 47° |
| 2026-05-06 13:04 | -24.82618 | -44.94756 | 39172 ft | 511 kts | 47° |
| 2026-05-06 13:04 | -24.77657 | -44.89149 | 39172 ft | 510 kts | 47° |
| 2026-05-06 13:05 | -24.72687 | -44.83539 | 39172 ft | 510 kts | 47° |
| 2026-05-06 13:05 | -24.67737 | -44.77955 | 39168 ft | 511 kts | 47° |
| 2026-05-06 13:06 | -24.62756 | -44.72342 | 39167 ft | 511 kts | 47° |
| 2026-05-06 13:06 | -24.57806 | -44.66775 | 39168 ft | 509 kts | 47° |
| 2026-05-06 13:07 | -24.52824 | -44.61249 | 39168 ft | 509 kts | 45° |
| 2026-05-06 13:07 | -24.47308 | -44.56353 | 39168 ft | 510 kts | 33° |
| 2026-05-06 13:08 | -24.41203 | -44.52481 | 39168 ft | 507 kts | 26° |
| 2026-05-06 13:08 | -24.38030 | -44.50692 | 38999 ft | 505 kts | 26° |
| 2026-05-06 13:08 | -24.34876 | -44.48965 | 38292 ft | 507 kts | 26° |
| 2026-05-06 13:08 | -24.31756 | -44.47275 | 37714 ft | 504 kts | 25° |
| 2026-05-06 13:09 | -24.28589 | -44.45558 | 37132 ft | 502 kts | 25° |
| 2026-05-06 13:09 | -24.25488 | -44.43868 | 36463 ft | 501 kts | 26° |
| 2026-05-06 13:09 | -24.22390 | -44.42168 | 35743 ft | 501 kts | 26° |
| 2026-05-06 13:09 | -24.19243 | -44.40434 | 34934 ft | 502 kts | 26° |
| 2026-05-06 13:10 | -24.16166 | -44.38730 | 34120 ft | 504 kts | 26° |
| 2026-05-06 13:10 | -24.13073 | -44.37013 | 33292 ft | 505 kts | 26° |
| 2026-05-06 13:10 | -24.09953 | -44.35279 | 32452 ft | 507 kts | 26° |
| 2026-05-06 13:10 | -24.06791 | -44.33519 | 31701 ft | 505 kts | 26° |
| 2026-05-06 13:11 | -24.03714 | -44.31805 | 31088 ft | 500 kts | 26° |
| 2026-05-06 13:11 | -24.00584 | -44.30064 | 30420 ft | 496 kts | 26° |
| 2026-05-06 13:11 | -23.97525 | -44.28361 | 29757 ft | 492 kts | 25° |
| 2026-05-06 13:11 | -23.94551 | -44.26621 | 29083 ft | 489 kts | 30° |
| 2026-05-06 13:12 | -23.91772 | -44.24487 | 28420 ft | 485 kts | 40° |
| 2026-05-06 13:12 | -23.89481 | -44.21853 | 28186 ft | 469 kts | 53° |
| 2026-05-06 13:12 | -23.87702 | -44.18948 | 28133 ft | 454 kts | 60° |
| 2026-05-06 13:12 | -23.86170 | -44.15949 | 27888 ft | 453 kts | 63° |
| 2026-05-06 13:13 | -23.84720 | -44.12907 | 27625 ft | 450 kts | 63° |
| 2026-05-06 13:13 | -23.83135 | -44.09975 | 27362 ft | 447 kts | 56° |
| 2026-05-06 13:13 | -23.81040 | -44.07469 | 27073 ft | 445 kts | 40° |
| 2026-05-06 13:13 | -23.78518 | -44.05619 | 26618 ft | 438 kts | 27° |
| 2026-05-06 13:14 | -23.75728 | -44.04328 | 26048 ft | 432 kts | 17° |
| 2026-05-06 13:14 | -23.72818 | -44.03444 | 25443 ft | 428 kts | 12° |
| 2026-05-06 13:14 | -23.69918 | -44.02860 | 24844 ft | 424 kts | 6° |
| 2026-05-06 13:14 | -23.67014 | -44.02540 | 24252 ft | 420 kts | 2° |
| 2026-05-06 13:15 | -23.64093 | -44.02354 | 23652 ft | 416 kts | 1° |
| 2026-05-06 13:15 | -23.61202 | -44.02222 | 23056 ft | 413 kts | 1° |
| 2026-05-06 13:15 | -23.58369 | -44.02101 | 22472 ft | 409 kts | 1° |
| 2026-05-06 13:15 | -23.55548 | -44.01971 | 22192 ft | 400 kts | 1° |
| 2026-05-06 13:16 | -23.52758 | -44.01828 | 22167 ft | 399 kts | 1° |
| 2026-05-06 13:16 | -23.49953 | -44.01673 | 22162 ft | 403 kts | 2° |
| 2026-05-06 13:16 | -23.47148 | -44.01510 | 22162 ft | 403 kts | 2° |
| 2026-05-06 13:16 | -23.44338 | -44.01340 | 22164 ft | 403 kts | 2° |
| 2026-05-06 13:17 | -23.41567 | -44.01171 | 22163 ft | 402 kts | 2° |
| 2026-05-06 13:17 | -23.38731 | -44.00995 | 22160 ft | 403 kts | 2° |
| 2026-05-06 13:17 | -23.35952 | -44.00822 | 22161 ft | 404 kts | 2° |
| 2026-05-06 13:17 | -23.33134 | -44.00645 | 22160 ft | 403 kts | 2° |
| 2026-05-06 13:18 | -23.30315 | -44.00468 | 22159 ft | 403 kts | 2° |
| 2026-05-06 13:18 | -23.27540 | -44.00293 | 22160 ft | 403 kts | 2° |
| 2026-05-06 13:18 | -23.24720 | -44.00116 | 22156 ft | 403 kts | 2° |
| 2026-05-06 13:18 | -23.21896 | -43.99937 | 22047 ft | 400 kts | 2° |
| 2026-05-06 13:19 | -23.19144 | -43.99764 | 21392 ft | 395 kts | 2° |
| 2026-05-06 13:19 | -23.16389 | -43.99590 | 20485 ft | 395 kts | 2° |
| 2026-05-06 13:19 | -23.13701 | -43.99421 | 19735 ft | 390 kts | 2° |
| 2026-05-06 13:19 | -23.10992 | -43.99250 | 18945 ft | 386 kts | 2° |
| 2026-05-06 13:20 | -23.08323 | -43.99083 | 18260 ft | 379 kts | 2° |
| 2026-05-06 13:20 | -23.05746 | -43.98920 | 17714 ft | 369 kts | 2° |
| 2026-05-06 13:20 | -23.03198 | -43.98760 | 17189 ft | 360 kts | 2° |
| 2026-05-06 13:20 | -23.00730 | -43.98605 | 16674 ft | 352 kts | 3° |
| 2026-05-06 13:21 | -22.98308 | -43.98452 | 16151 ft | 345 kts | 4° |
| 2026-05-06 13:21 | -22.95900 | -43.98120 | 15645 ft | 354 kts | 13° |
| 2026-05-06 13:21 | -22.93614 | -43.97119 | 15092 ft | 357 kts | 33° |
| 2026-05-06 13:21 | -22.91825 | -43.95331 | 14567 ft | 347 kts | 53° |
| 2026-05-06 13:22 | -22.90628 | -43.93130 | 14052 ft | 335 kts | 64° |
| 2026-05-06 13:22 | -22.89619 | -43.90874 | 13558 ft | 326 kts | 65° |
| 2026-05-06 13:22 | -22.88651 | -43.88693 | 13080 ft | 317 kts | 65° |
| 2026-05-06 13:22 | -22.87693 | -43.86542 | 12596 ft | 313 kts | 65° |
| 2026-05-06 13:23 | -22.86721 | -43.84364 | 12120 ft | 329 kts | 64° |
| 2026-05-06 13:23 | -22.85729 | -43.82142 | 11612 ft | 324 kts | 64° |
| 2026-05-06 13:23 | -22.84764 | -43.79985 | 11117 ft | 315 kts | 64° |
| 2026-05-06 13:23 | -22.83823 | -43.77882 | 10725 ft | 303 kts | 65° |
| 2026-05-06 13:24 | -22.82926 | -43.75876 | 10522 ft | 286 kts | 65° |
| 2026-05-06 13:24 | -22.82087 | -43.74000 | 10427 ft | 269 kts | 65° |
| 2026-05-06 13:24 | -22.81270 | -43.72133 | 10326 ft | 284 kts | 68° |
| 2026-05-06 13:24 | -22.80624 | -43.70094 | 10038 ft | 287 kts | 75° |
| 2026-05-06 13:25 | -22.80132 | -43.68000 | 9638 ft | 285 kts | 77° |
| 2026-05-06 13:25 | -22.79685 | -43.65910 | 9284 ft | 282 kts | 77° |
| 2026-05-06 13:25 | -22.79241 | -43.63867 | 8936 ft | 278 kts | 77° |
| 2026-05-06 13:25 | -22.78786 | -43.61849 | 8587 ft | 275 kts | 76° |
| 2026-05-06 13:26 | -22.78319 | -43.59829 | 8243 ft | 272 kts | 76° |
| 2026-05-06 13:26 | -22.77760 | -43.57906 | 8074 ft | 263 kts | 67° |
| 2026-05-06 13:26 | -22.76730 | -43.56295 | 8070 ft | 264 kts | 42° |
| 2026-05-06 13:26 | -22.75097 | -43.55389 | 7810 ft | 269 kts | 19° |
| 2026-05-06 13:27 | -22.73247 | -43.54870 | 7199 ft | 274 kts | 17° |
| 2026-05-06 13:27 | -22.71419 | -43.54279 | 6550 ft | 273 kts | 22° |
| 2026-05-06 13:27 | -22.69690 | -43.53478 | 6144 ft | 262 kts | 29° |
| 2026-05-06 13:27 | -22.68151 | -43.52582 | 6078 ft | 240 kts | 33° |
| 2026-05-06 13:28 | -22.66812 | -43.51643 | 6048 ft | 219 kts | 45° |
| 2026-05-06 13:28 | -22.66131 | -43.50287 | 6007 ft | 196 kts | 85° |
| 2026-05-06 13:28 | -22.66347 | -43.48913 | 5865 ft | 185 kts | 111° |
| 2026-05-06 13:28 | -22.67056 | -43.47728 | 5472 ft | 189 kts | 126° |
| 2026-05-06 13:29 | -22.67822 | -43.46612 | 5244 ft | 181 kts | 122° |
| 2026-05-06 13:29 | -22.68550 | -43.45473 | 4772 ft | 189 kts | 122° |
| 2026-05-06 13:29 | -22.69315 | -43.44304 | 4333 ft | 192 kts | 123° |
| 2026-05-06 13:29 | -22.70104 | -43.43133 | 3955 ft | 193 kts | 124° |
| 2026-05-06 13:30 | -22.70892 | -43.41969 | 3583 ft | 193 kts | 124° |
| 2026-05-06 13:30 | -22.71687 | -43.40772 | 3290 ft | 191 kts | 122° |
| 2026-05-06 13:30 | -22.72414 | -43.39632 | 3200 ft | 179 kts | 122° |
| 2026-05-06 13:30 | -22.73150 | -43.38465 | 2728 ft | 190 kts | 122° |
| 2026-05-06 13:31 | -22.73866 | -43.37273 | 2492 ft | 186 kts | 120° |
| 2026-05-06 13:31 | -22.74574 | -43.36097 | 2216 ft | 185 kts | 123° |
| 2026-05-06 13:31 | -22.75306 | -43.35018 | 1989 ft | 173 kts | 125° |
| 2026-05-06 13:31 | -22.76023 | -43.33993 | 1680 ft | 166 kts | 127° |
| 2026-05-06 13:32 | -22.76760 | -43.33049 | 1518 ft | 156 kts | 128° |
| 2026-05-06 13:32 | -22.77457 | -43.32171 | 1385 ft | 150 kts | 128° |
| 2026-05-06 13:32 | -22.78073 | -43.31266 | 1146 ft | 149 kts | 119° |
| 2026-05-06 13:32 | -22.78576 | -43.30289 | 951 ft | 147 kts | 116° |
| 2026-05-06 13:33 | -22.79113 | -43.29346 | 726 ft | 147 kts | 126° |
| 2026-05-06 13:33 | -22.79775 | -43.28495 | 478 ft | 146 kts | 129° |
| 2026-05-06 13:33 | -22.80407 | -43.27661 | 324 ft | 137 kts | 126° |
| 2026-05-06 13:33 | -22.80930 | -43.26835 | 166 ft | 129 kts | 123° |
| 2026-05-06 13:34 | -22.81442 | -43.26068 | 43 ft | 119 kts | 124° |
| 2026-05-06 13:34 | -22.81867 | -43.25425 | 31 ft | 85 kts | 124° |
| 2026-05-06 13:34 | -22.82140 | -43.25013 | 31 ft | 56 kts | 125° |
| 2026-05-06 13:34 | -22.82321 | -43.24725 | 31 ft | 30 kts | 120° |
| 2026-05-06 13:35 | -22.82362 | -43.24526 | 31 ft | 16 kts | 95° |
| 2026-05-06 13:35 | -22.82364 | -43.24495 | 31 ft | 1 kts | 92° |
| 2026-05-06 13:35 | -22.82364 | -43.24477 | 31 ft | 3 kts | 85° |
| 2026-05-06 13:35 | -22.82351 | -43.24441 | 31 ft | 7 kts | 53° |
| 2026-05-06 13:36 | -22.82304 | -43.24401 | 31 ft | 10 kts | 35° |
| 2026-05-06 13:36 | -22.82231 | -43.24345 | 31 ft | 13 kts | 37° |
| 2026-05-06 13:36 | -22.82153 | -43.24296 | 31 ft | 12 kts | 357° |
| 2026-05-06 13:36 | -22.82091 | -43.24358 | 31 ft | 12 kts | 306° |
| 2026-05-06 13:37 | -22.82040 | -43.24433 | 31 ft | 12 kts | 305° |
| 2026-05-06 13:37 | -22.81992 | -43.24506 | 31 ft | 11 kts | 305° |
| 2026-05-06 13:37 | -22.81943 | -43.24582 | 31 ft | 12 kts | 305° |
| 2026-05-06 13:37 | -22.81871 | -43.24597 | 31 ft | 11 kts | 29° |
| 2026-05-06 13:38 | -22.81809 | -43.24559 | 31 ft | 8 kts | 25° |
| 2026-05-06 13:38 | -22.81758 | -43.24520 | 31 ft | 12 kts | 42° |
| 2026-05-06 13:38 | -22.81697 | -43.24463 | 31 ft | 10 kts | 50° |
| 2026-05-06 13:38 | -22.81682 | -43.24396 | 31 ft | 8 kts | 99° |
| 2026-05-06 13:39 | -22.81701 | -43.24347 | 31 ft | 5 kts | 116° |
| 2026-05-06 13:39 | -22.81708 | -43.24336 | 31 ft | 0 kts | 134° |